createdAt,value
2019-05-17T00:01:18.808Z,101045.01
2019-05-17T00:03:46.969Z,101049.14
2019-05-17T00:06:12.297Z,101040.81
2019-05-17T00:08:38.545Z,101040.73
2019-05-17T00:11:06.690Z,101043.58
2019-05-17T00:13:32.303Z,101041.33
2019-05-17T00:15:58.096Z,101037.30
2019-05-17T00:18:23.877Z,101035.28
2019-05-17T00:20:49.777Z,101031.23
2019-05-17T00:23:17.358Z,101030.09
2019-05-17T00:25:43.276Z,101021.06
2019-05-17T00:28:09.056Z,101022.78
2019-05-17T00:30:36.977Z,101021.03
2019-05-17T00:33:02.544Z,101022.53
2019-05-17T00:35:28.343Z,101017.79
2019-05-17T00:37:54.138Z,101007.00
2019-05-17T00:40:19.949Z,101007.00
2019-05-17T00:42:46.671Z,101013.66
2019-05-17T00:45:12.840Z,101014.36
2019-05-17T00:47:38.631Z,101004.09
2019-05-17T00:50:07.399Z,101005.73
2019-05-17T00:52:33.112Z,101003.97
2019-05-17T00:54:58.924Z,100996.66
2019-05-17T00:57:27.191Z,100991.83
2019-05-17T00:59:52.438Z,100987.38
2019-05-17T01:02:18.219Z,100987.50
2019-05-17T01:04:44.010Z,100984.93
2019-05-17T01:07:09.810Z,100984.23
2019-05-17T01:09:36.682Z,100981.41
2019-05-17T01:12:02.623Z,100981.41
2019-05-17T01:14:28.410Z,100979.36
2019-05-17T01:16:56.362Z,100979.73
2019-05-17T01:19:21.899Z,100972.27
2019-05-17T01:21:47.711Z,100975.28
2019-05-17T01:24:13.487Z,100965.02
2019-05-17T01:26:39.285Z,100962.33
2019-05-17T01:29:06.703Z,100958.33
2019-05-17T01:31:32.685Z,100944.89
2019-05-17T01:33:58.471Z,100944.06
2019-05-17T01:36:26.230Z,100952.61
2019-05-17T01:38:51.961Z,100951.21
2019-05-17T01:41:17.769Z,100948.19
2019-05-17T01:43:43.550Z,100937.56
2019-05-17T01:46:09.347Z,100939.81
2019-05-17T01:48:36.539Z,100935.04
2019-05-17T01:51:02.539Z,100930.75
2019-05-17T01:53:28.340Z,100929.60
2019-05-17T01:55:54.118Z,100932.42
2019-05-17T01:58:19.927Z,100931.20
2019-05-17T02:00:46.509Z,100930.12
2019-05-17T02:03:12.519Z,100927.19
2019-05-17T02:05:38.302Z,100926.45
2019-05-17T02:08:06.621Z,100928.37
2019-05-17T02:10:32.113Z,100924.98
2019-05-17T02:12:57.917Z,100924.98
2019-05-17T02:15:23.897Z,100917.74
2019-05-17T02:17:49.698Z,100917.98
2019-05-17T02:20:17.057Z,100916.56
2019-05-17T02:22:43.096Z,100917.99
2019-05-17T02:25:09.880Z,100906.22
2019-05-17T02:27:41.058Z,100907.13
2019-05-17T02:30:06.697Z,100903.86
2019-05-17T02:32:33.685Z,100902.67
2019-05-17T02:35:03.017Z,100906.75
2019-05-17T02:37:27.483Z,100902.00
2019-05-17T02:40:02.390Z,100907.64
2019-05-17T02:42:22.407Z,100904.57
2019-05-17T02:44:48.363Z,100905.59
2019-05-17T02:47:14.159Z,100906.05
2019-05-17T02:49:42.490Z,100900.45
2019-05-17T02:52:07.728Z,100896.98
2019-05-17T02:54:33.546Z,100902.38
2019-05-17T02:56:59.322Z,100897.91
2019-05-17T02:59:25.122Z,100899.11
2019-05-17T03:01:52.714Z,100898.20
2019-05-17T03:04:18.622Z,100899.88
2019-05-17T03:06:44.417Z,100902.20
2019-05-17T03:09:12.507Z,100905.15
2019-05-17T03:11:37.925Z,100895.13
2019-05-17T03:14:04.248Z,100892.63
2019-05-17T03:16:33.562Z,100891.61
2019-05-17T03:18:57.826Z,100893.08
2019-05-17T03:21:23.608Z,100889.16
2019-05-17T03:23:49.432Z,100894.37
2019-05-17T03:26:15.221Z,100893.28
2019-05-17T03:28:42.674Z,100887.56
2019-05-17T03:31:09.541Z,100887.63
2019-05-17T03:33:36.860Z,100888.13
2019-05-17T03:36:06.089Z,100886.60
2019-05-17T03:38:32.543Z,100887.44
2019-05-17T03:41:13.473Z,100884.30
2019-05-17T03:43:26.108Z,100881.19
2019-05-17T03:45:53.345Z,100885.77
2019-05-17T03:48:22.001Z,100878.31
2019-05-17T03:50:47.099Z,100881.83
2019-05-17T03:53:13.310Z,100882.20
2019-05-17T03:55:39.196Z,100875.41
2019-05-17T03:58:04.977Z,100880.98
2019-05-17T04:00:30.784Z,100873.80
2019-05-17T04:02:56.576Z,100877.02
2019-05-17T04:05:22.840Z,100879.02
2019-05-17T04:07:48.701Z,100880.48
2019-05-17T04:10:15.478Z,100881.78
2019-05-17T04:12:44.155Z,100876.99
2019-05-17T04:15:13.374Z,100878.34
2019-05-17T04:17:39.276Z,100877.90
2019-05-17T04:20:05.774Z,100871.21
2019-05-17T04:22:33.143Z,100877.64
2019-05-17T04:25:02.787Z,100877.58
2019-05-17T04:27:26.749Z,100884.27
2019-05-17T04:29:53.312Z,100893.89
2019-05-17T04:32:19.340Z,100894.74
2019-05-17T04:34:45.118Z,100889.34
2019-05-17T04:37:13.029Z,100887.58
2019-05-17T04:39:38.602Z,100880.66
2019-05-17T04:42:04.507Z,100880.38
2019-05-17T04:44:32.240Z,100881.35
2019-05-17T04:46:58.107Z,100877.73
2019-05-17T04:49:24.442Z,100889.88
2019-05-17T04:51:52.571Z,100887.33
2019-05-17T04:54:18.068Z,100888.33
2019-05-17T04:56:43.876Z,100878.25
2019-05-17T04:59:09.654Z,100874.79
2019-05-17T05:01:35.461Z,100882.02
2019-05-17T05:04:03.669Z,100882.98
2019-05-17T05:06:28.941Z,100894.98
2019-05-17T05:08:54.718Z,100893.88
2019-05-17T05:11:23.105Z,100895.94
2019-05-17T05:13:48.214Z,100899.03
2019-05-17T05:16:14.010Z,100892.23
2019-05-17T05:18:42.123Z,100894.44
2019-05-17T05:21:07.699Z,100894.55
2019-05-17T05:23:33.486Z,100893.73
2019-05-17T05:25:59.289Z,100895.47
2019-05-17T05:28:25.074Z,100893.63
2019-05-17T05:30:52.731Z,100895.63
2019-05-17T05:33:18.572Z,100890.54
2019-05-17T05:35:44.348Z,100890.54
2019-05-17T05:38:12.653Z,100900.29
2019-05-17T05:40:38.121Z,100885.96
2019-05-17T05:43:03.922Z,100891.80
2019-05-17T05:45:31.935Z,100886.92
2019-05-17T05:47:57.408Z,100886.71
2019-05-17T05:50:23.256Z,100885.36
2019-05-17T05:52:49.050Z,100880.20
2019-05-17T05:55:15.434Z,100875.11
2019-05-17T05:57:42.032Z,100885.42
2019-05-17T06:00:12.484Z,100881.58
2019-05-17T06:02:37.832Z,100874.37
2019-05-17T06:05:05.209Z,100877.81
2019-05-17T06:07:32.183Z,100862.66
2019-05-17T06:09:58.126Z,100866.19
2019-05-17T06:12:28.046Z,100863.98
2019-05-17T06:14:52.385Z,100874.51
2019-05-17T06:17:18.220Z,100877.32
2019-05-17T06:19:44.008Z,100873.48
2019-05-17T06:22:11.864Z,100873.48
2019-05-17T06:24:37.490Z,100883.36
2019-05-17T06:27:03.279Z,100881.48
2019-05-17T06:29:29.066Z,100873.98
2019-05-17T06:31:54.848Z,100879.38
2019-05-17T06:34:22.365Z,100873.66
2019-05-17T06:36:48.230Z,100876.28
2019-05-17T06:39:14.030Z,100872.87
2019-05-17T06:41:41.970Z,100872.71
2019-05-17T06:44:07.524Z,100878.30
2019-05-17T06:46:33.310Z,100875.25
2019-05-17T06:48:59.122Z,100876.10
2019-05-17T06:51:24.904Z,100871.09
2019-05-17T06:53:52.375Z,100861.81
2019-05-17T06:56:18.285Z,100856.64
2019-05-17T06:58:44.083Z,100857.81
2019-05-17T07:01:09.871Z,100850.76
2019-05-17T07:03:35.669Z,100851.47
2019-05-17T07:06:03.439Z,100847.44
2019-05-17T07:08:29.607Z,100840.62
2019-05-17T07:10:55.458Z,100846.13
2019-05-17T07:13:21.240Z,100854.88
2019-05-17T07:15:47.981Z,100856.98
2019-05-17T07:18:14.731Z,100860.01
2019-05-17T07:20:40.540Z,100862.62
2019-05-17T07:23:06.308Z,100868.44
2019-05-17T07:25:32.108Z,100881.25
2019-05-17T07:28:00.268Z,100875.32
2019-05-17T07:30:25.686Z,100871.49
2019-05-17T07:32:51.478Z,100863.94
2019-05-17T07:35:19.598Z,100855.28
2019-05-17T07:37:44.955Z,100856.67
2019-05-17T07:40:11.260Z,100860.95
2019-05-17T07:42:39.462Z,100868.86
2019-05-17T07:45:10.043Z,100851.85
2019-05-17T07:47:35.772Z,100852.17
2019-05-17T07:50:02.967Z,100847.48
2019-05-17T07:52:29.948Z,100836.59
2019-05-17T07:54:55.897Z,100838.45
2019-05-17T07:57:21.686Z,100846.97
2019-05-17T07:59:47.490Z,100838.66
2019-05-17T08:02:13.266Z,100831.45
2019-05-17T08:04:40.663Z,100840.63
2019-05-17T08:07:06.743Z,100836.98
2019-05-17T08:09:32.542Z,100832.91
2019-05-17T08:11:59.744Z,100838.75
2019-05-17T08:14:30.238Z,100838.75
2019-05-17T08:16:53.510Z,100836.98
2019-05-17T08:19:20.494Z,100836.95
2019-05-17T08:21:46.387Z,100841.91
2019-05-17T08:24:12.170Z,100836.75
2019-05-17T08:26:40.247Z,100841.94
2019-05-17T08:29:05.644Z,100838.83
2019-05-17T08:31:31.436Z,100840.59
2019-05-17T08:33:57.230Z,100841.98
2019-05-17T08:36:23.034Z,100842.58
2019-05-17T08:38:50.175Z,100845.28
2019-05-17T08:41:16.128Z,100848.48
2019-05-17T08:43:46.485Z,100839.59
2019-05-17T08:46:10.627Z,100840.53
2019-05-17T08:48:36.476Z,100840.30
2019-05-17T08:51:02.273Z,100841.13
2019-05-17T08:53:30.352Z,100854.20
2019-05-17T08:55:56.042Z,100853.91
2019-05-17T08:58:21.841Z,100844.39
2019-05-17T09:00:47.615Z,100837.70
2019-05-17T09:03:13.400Z,100830.20
2019-05-17T09:05:41.586Z,100830.70
2019-05-17T09:08:06.879Z,100833.12
2019-05-17T09:10:32.677Z,100834.70
2019-05-17T09:12:59.768Z,100825.37
2019-05-17T09:15:25.670Z,100829.50
2019-05-17T09:17:51.469Z,100834.21
2019-05-17T09:20:17.257Z,100833.90
2019-05-17T09:22:43.055Z,100832.43
2019-05-17T09:25:12.257Z,100838.89
2019-05-17T09:27:36.743Z,100835.52
2019-05-17T09:30:04.033Z,100831.50
2019-05-17T09:32:29.873Z,100831.03
2019-05-17T09:34:55.613Z,100835.44
2019-05-17T09:37:22.629Z,100832.86
2019-05-17T09:39:49.261Z,100823.20
2019-05-17T09:42:15.206Z,100825.01
2019-05-17T09:44:40.994Z,100823.08
2019-05-17T09:47:06.772Z,100822.48
2019-05-17T09:49:32.566Z,100823.45
2019-05-17T09:52:00.155Z,100818.78
2019-05-17T09:54:41.139Z,100818.20
2019-05-17T09:56:53.754Z,100819.91
2019-05-17T09:59:20.406Z,100813.11
2019-05-17T10:01:46.235Z,100812.53
2019-05-17T10:04:13.461Z,100812.11
2019-05-17T10:06:40.228Z,100808.84
2019-05-17T10:09:06.046Z,100801.30
2019-05-17T10:11:31.848Z,100807.28
2019-05-17T10:13:59.016Z,100803.95
2019-05-17T10:16:25.334Z,100799.59
2019-05-17T10:18:51.129Z,100796.45
2019-05-17T10:21:16.909Z,100795.91
2019-05-17T10:23:42.706Z,100792.00
2019-05-17T10:26:10.240Z,100791.67
2019-05-17T10:28:36.184Z,100784.73
2019-05-17T10:31:02.523Z,100781.27
2019-05-17T10:33:29.440Z,100779.72
2019-05-17T10:35:55.358Z,100774.59
2019-05-17T10:38:21.138Z,100780.04
2019-05-17T10:40:47.130Z,100777.10
2019-05-17T10:43:12.921Z,100774.61
2019-05-17T10:45:40.049Z,100777.73
2019-05-17T10:48:06.095Z,100775.78
2019-05-17T10:50:31.910Z,100769.30
2019-05-17T10:53:00.215Z,100761.24
2019-05-17T10:55:25.376Z,100762.80
2019-05-17T10:57:51.159Z,100768.72
2019-05-17T11:00:19.525Z,100754.71
2019-05-17T11:02:44.935Z,100765.43
2019-05-17T11:05:10.828Z,100758.91
2019-05-17T11:07:36.649Z,100748.76
2019-05-17T11:10:03.757Z,100755.15
2019-05-17T11:12:29.542Z,100759.38
2019-05-17T11:15:09.751Z,100757.50
2019-05-17T11:17:23.016Z,100760.23
2019-05-17T11:19:48.871Z,100755.91
2019-05-17T11:22:14.914Z,100742.88
2019-05-17T11:24:40.679Z,100742.97
2019-05-17T11:27:06.470Z,100747.22
2019-05-17T11:29:32.364Z,100745.20
2019-05-17T11:31:58.173Z,100745.19
2019-05-17T11:34:25.605Z,100744.75
2019-05-17T11:36:51.546Z,100732.34
2019-05-17T11:39:17.337Z,100739.81
2019-05-17T11:41:43.130Z,100732.98
2019-05-17T11:44:08.910Z,100739.72
2019-05-17T11:46:36.509Z,100734.64
2019-05-17T11:49:02.485Z,100734.30
2019-05-17T11:51:28.275Z,100735.72
2019-05-17T11:53:54.055Z,100732.89
2019-05-17T11:56:19.849Z,100729.41
2019-05-17T11:58:45.636Z,100730.78
2019-05-17T12:01:11.431Z,100731.56
2019-05-17T12:03:37.210Z,100725.98
2019-05-17T12:06:03.202Z,100721.45
2019-05-17T12:08:28.980Z,100718.55
2019-05-17T12:10:54.879Z,100712.08
2019-05-17T12:13:20.772Z,100701.02
2019-05-17T12:15:46.549Z,100708.91
2019-05-17T12:18:12.342Z,100700.63
2019-05-17T12:20:38.127Z,100699.88
2019-05-17T12:23:03.920Z,100703.57
2019-05-17T12:25:29.707Z,100696.51
2019-05-17T12:27:55.502Z,100688.14
2019-05-17T12:30:21.384Z,100687.16
2019-05-17T12:32:47.180Z,100695.84
2019-05-17T12:35:12.952Z,100691.14
2019-05-17T12:37:42.136Z,100687.34
2019-05-17T12:40:06.963Z,100691.52
2019-05-17T12:42:32.821Z,100682.79
2019-05-17T12:44:58.606Z,100687.89
2019-05-17T12:47:24.400Z,100680.02
2019-05-17T12:49:50.175Z,100685.47
2019-05-17T12:52:15.965Z,100689.46
2019-05-17T12:54:41.744Z,100681.84
2019-05-17T12:57:07.535Z,100680.20
2019-05-17T12:59:33.324Z,100677.94
2019-05-17T13:01:59.130Z,100679.62
2019-05-17T13:04:24.911Z,100673.47
2019-05-17T13:06:50.698Z,100670.97
2019-05-17T13:09:16.491Z,100674.92
2019-05-17T13:11:42.298Z,100675.25
2019-05-17T13:14:08.084Z,100667.45
2019-05-17T13:16:33.861Z,100671.33
2019-05-17T13:18:59.929Z,100667.97
2019-05-17T13:21:25.690Z,100662.88
2019-05-17T13:23:51.480Z,100663.41
2019-05-17T13:26:17.263Z,100661.59
2019-05-17T13:28:43.053Z,100661.88
2019-05-17T13:31:08.832Z,100661.77
2019-05-17T13:33:34.628Z,100647.05
2019-05-17T13:36:00.413Z,100639.06
2019-05-17T13:38:26.208Z,100642.38
2019-05-17T13:40:51.986Z,100646.25
2019-05-17T13:43:17.789Z,100637.79
2019-05-17T13:45:44.587Z,100640.00
2019-05-17T13:48:10.657Z,100636.72
2019-05-17T13:50:36.445Z,100632.54
2019-05-17T13:53:02.232Z,100631.42
2019-05-17T13:55:28.031Z,100619.64
2019-05-17T13:57:53.801Z,100628.66
2019-05-17T14:00:19.705Z,100633.60
2019-05-17T14:02:45.470Z,100625.27
2019-05-17T14:05:11.571Z,100624.74
2019-05-17T14:07:37.354Z,100617.70
2019-05-17T14:10:06.341Z,100618.07
2019-05-17T14:12:32.114Z,100617.34
2019-05-17T14:14:57.917Z,100617.82
2019-05-17T14:17:23.693Z,100618.95
2019-05-17T14:19:49.482Z,100614.39
2019-05-17T14:22:15.297Z,100611.84
2019-05-17T14:24:41.131Z,100609.22
2019-05-17T14:27:07.009Z,100608.62
2019-05-17T14:29:32.829Z,100608.03
2019-05-17T14:31:58.588Z,100608.07
2019-05-17T14:34:24.389Z,100614.80
2019-05-17T14:36:50.168Z,100604.70
2019-05-17T14:39:15.968Z,100602.70
2019-05-17T14:41:41.751Z,100607.95
2019-05-17T14:44:07.538Z,100604.25
2019-05-17T14:46:33.339Z,100601.14
2019-05-17T14:48:59.136Z,100600.52
2019-05-17T14:51:25.024Z,100607.09
2019-05-17T14:53:51.058Z,100598.62
2019-05-17T14:56:16.952Z,100605.88
2019-05-17T14:58:42.738Z,100609.48
2019-05-17T15:01:08.528Z,100606.73
2019-05-17T15:03:34.313Z,100605.16
2019-05-17T15:06:00.134Z,100597.27
2019-05-17T15:08:25.974Z,100597.49
2019-05-17T15:10:51.779Z,100595.73
2019-05-17T15:13:17.570Z,100594.29
2019-05-17T15:15:43.364Z,100590.79
2019-05-17T15:18:09.936Z,100589.53
2019-05-17T15:20:35.947Z,100589.95
2019-05-17T15:23:02.222Z,100583.85
2019-05-17T15:25:28.015Z,100584.52
2019-05-17T15:27:54.716Z,100587.95
2019-05-17T15:30:22.123Z,100587.84
2019-05-17T15:32:49.512Z,100586.11
2019-05-17T15:35:15.813Z,100587.73
2019-05-17T15:37:42.584Z,100591.75
2019-05-17T15:40:09.586Z,100591.50
2019-05-17T15:42:44.011Z,100588.27
2019-05-17T15:45:05.596Z,100587.20
2019-05-17T15:47:31.381Z,100584.28
2019-05-17T15:49:57.179Z,100576.02
2019-05-17T15:52:23.381Z,100580.58
2019-05-17T15:54:49.173Z,100577.11
2019-05-17T15:57:15.039Z,100571.91
2019-05-17T15:59:40.827Z,100577.03
2019-05-17T16:02:06.650Z,100575.75
2019-05-17T16:04:32.424Z,100571.86
2019-05-17T16:06:58.222Z,100569.92
2019-05-17T16:09:24.035Z,100568.62
2019-05-17T16:11:49.859Z,100567.30
2019-05-17T16:14:15.660Z,100568.38
2019-05-17T16:16:41.445Z,100562.59
2019-05-17T16:19:07.244Z,100567.70
2019-05-17T16:21:33.027Z,100565.84
2019-05-17T16:23:58.834Z,100572.63
2019-05-17T16:26:24.621Z,100565.72
2019-05-17T16:28:50.524Z,100572.35
2019-05-17T16:31:16.301Z,100566.27
2019-05-17T16:33:42.098Z,100569.33
2019-05-17T16:36:07.889Z,100564.61
2019-05-17T16:38:33.681Z,100575.23
2019-05-17T16:40:59.466Z,100567.48
2019-05-17T16:43:25.256Z,100562.48
2019-05-17T16:45:51.044Z,100571.41
2019-05-17T16:48:16.849Z,100565.11
2019-05-17T16:50:43.610Z,100565.95
2019-05-17T16:53:09.417Z,100567.44
2019-05-17T16:55:35.235Z,100565.95
2019-05-17T16:58:01.032Z,100558.19
2019-05-17T17:00:30.031Z,100560.73
2019-05-17T17:02:55.838Z,100561.03
2019-05-17T17:05:21.638Z,100560.01
2019-05-17T17:07:47.441Z,100563.80
2019-05-17T17:10:13.328Z,100569.28
2019-05-17T17:12:39.142Z,100566.20
2019-05-17T17:15:05.041Z,100565.75
2019-05-17T17:17:30.834Z,100568.38
2019-05-17T17:19:56.644Z,100567.19
2019-05-17T17:22:22.463Z,100568.09
2019-05-17T17:24:48.239Z,100560.81
2019-05-17T17:27:14.037Z,100559.64
2019-05-17T17:29:40.217Z,100556.38
2019-05-17T17:32:19.422Z,100563.59
2019-05-17T17:34:33.749Z,100564.30
2019-05-17T17:36:59.538Z,100566.73
2019-05-17T17:39:25.336Z,100564.02
2019-05-17T17:41:51.132Z,100571.11
2019-05-17T17:44:16.941Z,100572.52
2019-05-17T17:46:42.740Z,100565.91
2019-05-17T17:49:08.556Z,100571.63
2019-05-17T17:51:34.384Z,100568.86
2019-05-17T17:54:00.163Z,100563.55
2019-05-17T17:56:25.993Z,100571.92
2019-05-17T17:58:51.782Z,100570.05
2019-05-17T18:01:17.577Z,100573.34
2019-05-17T18:03:43.377Z,100572.17
2019-05-17T18:06:09.194Z,100579.87
2019-05-17T18:08:34.968Z,100579.67
2019-05-17T18:11:00.782Z,100578.52
2019-05-17T18:13:26.574Z,100572.82
2019-05-17T18:15:52.376Z,100572.67
2019-05-17T18:18:18.159Z,100579.65
2019-05-17T18:20:43.965Z,100578.44
2019-05-17T18:23:09.842Z,100571.38
2019-05-17T18:25:35.851Z,100572.06
2019-05-17T18:28:01.633Z,100586.48
2019-05-17T18:30:27.536Z,100589.34
2019-05-17T18:32:53.441Z,100581.28
2019-05-17T18:35:19.234Z,100575.64
2019-05-17T18:37:45.028Z,100588.69
2019-05-17T18:40:10.967Z,100582.95
2019-05-17T18:42:36.753Z,100583.48
2019-05-17T18:45:04.751Z,100585.59
2019-05-17T18:47:30.554Z,100581.00
2019-05-17T18:49:56.344Z,100583.79
2019-05-17T18:52:22.151Z,100582.87
2019-05-17T18:54:47.931Z,100590.65
2019-05-17T18:57:13.716Z,100581.66
2019-05-17T18:59:39.494Z,100589.26
2019-05-17T19:02:05.398Z,100589.50
2019-05-17T19:04:31.191Z,100588.44
2019-05-17T19:06:57.061Z,100589.52
2019-05-17T19:09:22.837Z,100590.55
2019-05-17T19:11:48.653Z,100593.27
2019-05-17T19:14:14.442Z,100598.86
2019-05-17T19:16:40.246Z,100588.44
2019-05-17T19:19:06.026Z,100596.75
2019-05-17T19:21:31.826Z,100597.41
2019-05-17T19:23:57.618Z,100592.45
2019-05-17T19:26:23.409Z,100601.70
2019-05-17T19:28:49.198Z,100602.25
2019-05-17T19:31:14.995Z,100596.98
2019-05-17T19:33:40.787Z,100603.36
2019-05-17T19:36:06.606Z,100595.63
2019-05-17T19:38:32.414Z,100599.59
2019-05-17T19:40:58.210Z,100601.79
2019-05-17T19:43:24.014Z,100607.22
2019-05-17T19:45:49.797Z,100608.34
2019-05-17T19:48:15.606Z,100608.94
2019-05-17T19:50:41.381Z,100612.02
2019-05-17T19:53:07.172Z,100609.75
2019-05-17T19:55:33.462Z,100602.95
2019-05-17T19:57:59.360Z,100610.55
2019-05-17T20:00:25.192Z,100604.69
2019-05-17T20:02:50.952Z,100608.74
2019-05-17T20:05:16.838Z,100608.98
2019-05-17T20:07:42.654Z,100602.94
2019-05-17T20:10:08.938Z,100603.37
2019-05-17T20:12:34.853Z,100601.53
2019-05-17T20:15:16.175Z,100600.05
2019-05-17T20:17:28.333Z,100598.69
2019-05-17T20:19:54.118Z,100604.86
2019-05-17T20:22:19.923Z,100599.23
2019-05-17T20:24:45.705Z,100596.08
2019-05-17T20:27:11.504Z,100593.95
2019-05-17T20:29:37.298Z,100596.86
2019-05-17T20:32:03.185Z,100599.50
2019-05-17T20:34:28.994Z,100599.00
2019-05-17T20:36:54.789Z,100596.83
2019-05-17T20:39:20.590Z,100602.79
2019-05-17T20:41:46.382Z,100592.95
2019-05-17T20:44:12.185Z,100599.59
2019-05-17T20:46:37.971Z,100595.98
2019-05-17T20:49:03.777Z,100594.36
2019-05-17T20:51:29.571Z,100593.16
2019-05-17T20:53:55.370Z,100590.14
2019-05-17T20:56:32.365Z,100580.38
2019-05-17T20:58:48.868Z,100587.23
2019-05-17T21:01:14.668Z,100584.37
2019-05-17T21:03:40.457Z,100579.95
2019-05-17T21:06:06.245Z,100582.86
2019-05-17T21:08:45.133Z,100585.10
2019-05-17T21:10:59.749Z,100576.67
2019-05-17T21:13:25.580Z,100578.64
2019-05-17T21:15:51.355Z,100580.42
2019-05-17T21:18:17.150Z,100588.34
2019-05-17T21:20:42.941Z,100588.91
2019-05-17T21:23:08.729Z,100590.69
2019-05-17T21:25:34.528Z,100592.05
2019-05-17T21:28:00.419Z,100588.02
2019-05-17T21:30:26.225Z,100586.23
2019-05-17T21:32:52.019Z,100582.17
2019-05-17T21:35:17.811Z,100577.88
2019-05-17T21:37:43.594Z,100582.48
2019-05-17T21:40:09.798Z,100577.83
2019-05-17T21:42:35.603Z,100573.34
2019-05-17T21:45:03.424Z,100578.07
2019-05-17T21:47:29.193Z,100580.45
2019-05-17T21:49:54.992Z,100582.33
2019-05-17T21:52:20.773Z,100584.11
2019-05-17T21:54:46.578Z,100586.94
2019-05-17T21:57:12.398Z,100590.65
2019-05-17T21:59:38.164Z,100589.05
2019-05-17T22:02:04.250Z,100589.19
2019-05-17T22:04:30.058Z,100594.59
2019-05-17T22:06:55.853Z,100597.79
2019-05-17T22:09:21.763Z,100585.31
2019-05-17T22:11:49.460Z,100585.86
2019-05-17T22:14:15.250Z,100583.66
2019-05-17T22:16:41.048Z,100583.05
2019-05-17T22:19:06.828Z,100580.86
2019-05-17T22:21:32.961Z,100581.09
2019-05-17T22:23:58.760Z,100581.80
2019-05-17T22:26:24.559Z,100569.39
2019-05-17T22:28:50.355Z,100576.08
2019-05-17T22:31:16.148Z,100577.42
2019-05-17T22:33:42.242Z,100582.13
2019-05-17T22:36:08.142Z,100579.51
2019-05-17T22:38:33.973Z,100580.92
2019-05-17T22:40:59.769Z,100585.66
2019-05-17T22:43:25.559Z,100583.57
2019-05-17T22:45:51.366Z,100579.42
2019-05-17T22:48:17.144Z,100577.03
2019-05-17T22:50:42.939Z,100581.99
2019-05-17T22:53:08.722Z,100576.18
2019-05-17T22:55:34.508Z,100583.05
2019-05-17T22:58:00.301Z,100588.05
2019-05-17T23:00:26.413Z,100585.66
2019-05-17T23:02:52.424Z,100584.61
2019-05-17T23:05:25.702Z,100588.47
2019-05-17T23:07:46.308Z,100582.47
2019-05-17T23:10:12.341Z,100587.23
2019-05-17T23:12:38.151Z,100579.23
2019-05-17T23:15:06.333Z,100580.80
2019-05-17T23:17:32.126Z,100576.62
2019-05-17T23:19:58.084Z,100580.11
2019-05-17T23:22:23.892Z,100574.95
2019-05-17T23:24:49.674Z,100572.58
2019-05-17T23:27:15.511Z,100571.77
2019-05-17T23:29:41.615Z,100567.62
2019-05-17T23:32:07.620Z,100566.58
2019-05-17T23:34:33.398Z,100566.13
2019-05-17T23:36:59.200Z,100568.73
2019-05-17T23:39:25.175Z,100563.31
2019-05-17T23:41:51.134Z,100564.11
2019-05-17T23:44:16.957Z,100564.05
2019-05-17T23:46:42.700Z,100561.03
2019-05-17T23:49:08.506Z,100558.23
2019-05-17T23:51:34.371Z,100562.52
2019-05-17T23:54:00.159Z,100561.16
2019-05-17T23:56:25.950Z,100563.96
2019-05-17T23:58:51.750Z,100565.75
